sensor_id;sensor_type;location;lat;lon;timestamp;pressure;altitude;pressure_sealevel;temperature;humidity
12868;BME280;33517;49.866;8.320;2023-12-28T00:00:13;100418.31;;;6.33;84.02
12868;BME280;33517;49.866;8.320;2023-12-28T00:03:05;100407.03;;;6.42;81.56
12868;BME280;33517;49.866;8.320;2023-12-28T00:05:57;100409.63;;;6.51;82.05
12868;BME280;33517;49.866;8.320;2023-12-28T00:08:49;100417.47;;;6.61;81.86
12868;BME280;33517;49.866;8.320;2023-12-28T00:11:41;100418.00;;;6.65;82.96
12868;BME280;33517;49.866;8.320;2023-12-28T00:14:33;100414.69;;;6.72;81.54
12868;BME280;33517;49.866;8.320;2023-12-28T00:17:26;100415.38;;;6.74;81.31
12868;BME280;33517;49.866;8.320;2023-12-28T00:20:18;100417.72;;;6.77;80.66
12868;BME280;33517;49.866;8.320;2023-12-28T00:23:10;100424.88;;;6.85;81.08
12868;BME280;33517;49.866;8.320;2023-12-28T00:26:02;100428.94;;;6.97;80.66
12868;BME280;33517;49.866;8.320;2023-12-28T00:28:54;100424.97;;;7.02;80.57
12868;BME280;33517;49.866;8.320;2023-12-28T00:31:46;100421.34;;;7.13;80.69
12868;BME280;33517;49.866;8.320;2023-12-28T00:34:39;100422.81;;;7.25;79.46
12868;BME280;33517;49.866;8.320;2023-12-28T00:37:31;100424.59;;;7.24;78.76
12868;BME280;33517;49.866;8.320;2023-12-28T00:40:23;100419.75;;;7.29;78.94
12868;BME280;33517;49.866;8.320;2023-12-28T00:43:15;100426.59;;;7.40;78.42
12868;BME280;33517;49.866;8.320;2023-12-28T00:46:07;100426.72;;;7.48;77.00
12868;BME280;33517;49.866;8.320;2023-12-28T00:48:59;100418.13;;;7.56;76.56
12868;BME280;33517;49.866;8.320;2023-12-28T00:51:52;100419.88;;;7.65;76.48
12868;BME280;33517;49.866;8.320;2023-12-28T00:54:44;100403.94;;;7.76;77.22
12868;BME280;33517;49.866;8.320;2023-12-28T00:57:36;100426.63;;;7.85;76.31
12868;BME280;33517;49.866;8.320;2023-12-28T01:00:28;100409.66;;;7.89;75.09
12868;BME280;33517;49.866;8.320;2023-12-28T01:03:20;100404.22;;;8.00;74.26
12868;BME280;33517;49.866;8.320;2023-12-28T01:06:12;100399.19;;;8.06;73.93
12868;BME280;33517;49.866;8.320;2023-12-28T01:09:07;100409.25;;;8.11;73.08
12868;BME280;33517;49.866;8.320;2023-12-28T01:11:59;100411.03;;;8.10;73.62
12868;BME280;33517;49.866;8.320;2023-12-28T01:14:51;100423.09;;;8.21;74.05
12868;BME280;33517;49.866;8.320;2023-12-28T01:17:43;100416.22;;;8.38;73.38
12868;BME280;33517;49.866;8.320;2023-12-28T01:20:35;100418.47;;;8.50;72.17
12868;BME280;33517;49.866;8.320;2023-12-28T01:23:26;100413.94;;;8.60;72.00
12868;BME280;33517;49.866;8.320;2023-12-28T01:26:20;100431.91;;;8.73;72.41
12868;BME280;33517;49.866;8.320;2023-12-28T01:29:12;100422.97;;;8.83;72.88
12868;BME280;33517;49.866;8.320;2023-12-28T01:32:05;100425.66;;;8.91;71.45
12868;BME280;33517;49.866;8.320;2023-12-28T01:34:57;100435.69;;;8.96;70.71
12868;BME280;33517;49.866;8.320;2023-12-28T01:37:49;100434.78;;;9.05;71.31
12868;BME280;33517;49.866;8.320;2023-12-28T01:40:44;100433.34;;;9.10;70.59
12868;BME280;33517;49.866;8.320;2023-12-28T01:43:37;100448.09;;;9.11;70.15
12868;BME280;33517;49.866;8.320;2023-12-28T01:46:29;100453.34;;;9.11;70.02
12868;BME280;33517;49.866;8.320;2023-12-28T01:49:22;100471.09;;;9.17;70.57
12868;BME280;33517;49.866;8.320;2023-12-28T01:52:14;100485.41;;;9.23;71.18
12868;BME280;33517;49.866;8.320;2023-12-28T01:55:07;100495.47;;;9.27;72.07
12868;BME280;33517;49.866;8.320;2023-12-28T01:58:00;100486.97;;;9.34;71.56
12868;BME280;33517;49.866;8.320;2023-12-28T02:00:55;100492.56;;;9.39;72.20
12868;BME280;33517;49.866;8.320;2023-12-28T02:03:48;100488.81;;;9.41;72.88
12868;BME280;33517;49.866;8.320;2023-12-28T02:06:40;100496.22;;;9.46;72.85
12868;BME280;33517;49.866;8.320;2023-12-28T02:09:32;100482.56;;;9.42;72.87
12868;BME280;33517;49.866;8.320;2023-12-28T02:12:24;100489.63;;;9.42;73.03
12868;BME280;33517;49.866;8.320;2023-12-28T02:15:16;100495.53;;;9.44;73.58
12868;BME280;33517;49.866;8.320;2023-12-28T02:18:12;100513.41;;;9.40;72.92
12868;BME280;33517;49.866;8.320;2023-12-28T02:21:07;100512.13;;;9.44;72.95
12868;BME280;33517;49.866;8.320;2023-12-28T02:23:59;100506.44;;;9.49;72.16
12868;BME280;33517;49.866;8.320;2023-12-28T02:26:53;100517.28;;;9.54;73.06
12868;BME280;33517;49.866;8.320;2023-12-28T02:29:45;100522.25;;;9.57;73.34
12868;BME280;33517;49.866;8.320;2023-12-28T02:32:44;100526.94;;;9.53;72.63
12868;BME280;33517;49.866;8.320;2023-12-28T02:35:42;100519.75;;;9.55;72.89
12868;BME280;33517;49.866;8.320;2023-12-28T02:38:36;100521.56;;;9.55;73.61
12868;BME280;33517;49.866;8.320;2023-12-28T02:41:30;100524.81;;;9.49;73.05
12868;BME280;33517;49.866;8.320;2023-12-28T02:44:24;100522.53;;;9.54;73.75
12868;BME280;33517;49.866;8.320;2023-12-28T02:47:16;100526.50;;;9.58;74.03
12868;BME280;33517;49.866;8.320;2023-12-28T02:50:08;100524.53;;;9.60;74.37
12868;BME280;33517;49.866;8.320;2023-12-28T02:53:00;100521.91;;;9.60;74.34
12868;BME280;33517;49.866;8.320;2023-12-28T02:55:52;100517.50;;;9.60;75.28
12868;BME280;33517;49.866;8.320;2023-12-28T02:58:44;100524.31;;;9.53;73.98
12868;BME280;33517;49.866;8.320;2023-12-28T03:01:37;100527.16;;;9.60;74.91
12868;BME280;33517;49.866;8.320;2023-12-28T03:04:30;100521.28;;;9.66;75.16
12868;BME280;33517;49.866;8.320;2023-12-28T03:07:22;100512.06;;;9.62;75.49
12868;BME280;33517;49.866;8.320;2023-12-28T03:10:14;100502.34;;;9.54;75.51
12868;BME280;33517;49.866;8.320;2023-12-28T03:13:06;100506.78;;;9.54;75.50
12868;BME280;33517;49.866;8.320;2023-12-28T03:15:58;100514.66;;;9.54;75.96
12868;BME280;33517;49.866;8.320;2023-12-28T03:18:51;100525.66;;;9.57;76.44
12868;BME280;33517;49.866;8.320;2023-12-28T03:21:43;100504.47;;;9.51;77.07
12868;BME280;33517;49.866;8.320;2023-12-28T03:24:36;100508.84;;;9.42;79.50
12868;BME280;33517;49.866;8.320;2023-12-28T03:27:28;100509.00;;;9.41;80.47
12868;BME280;33517;49.866;8.320;2023-12-28T03:30:20;100535.78;;;9.44;81.12
12868;BME280;33517;49.866;8.320;2023-12-28T03:33:12;100521.34;;;9.48;81.43
12868;BME280;33517;49.866;8.320;2023-12-28T03:36:06;100528.28;;;9.49;81.67
12868;BME280;33517;49.866;8.320;2023-12-28T03:38:58;100530.22;;;9.47;82.17
12868;BME280;33517;49.866;8.320;2023-12-28T03:41:50;100528.22;;;9.41;82.87
12868;BME280;33517;49.866;8.320;2023-12-28T03:44:43;100529.00;;;9.42;83.06
12868;BME280;33517;49.866;8.320;2023-12-28T03:47:35;100527.88;;;9.44;82.92
12868;BME280;33517;49.866;8.320;2023-12-28T03:50:27;100537.56;;;9.44;83.26
12868;BME280;33517;49.866;8.320;2023-12-28T03:53:20;100527.59;;;9.47;83.08
12868;BME280;33517;49.866;8.320;2023-12-28T03:56:20;100519.34;;;9.42;83.85
12868;BME280;33517;49.866;8.320;2023-12-28T03:59:13;100517.03;;;9.39;83.99
12868;BME280;33517;49.866;8.320;2023-12-28T04:02:05;100520.50;;;9.40;83.45
12868;BME280;33517;49.866;8.320;2023-12-28T04:04:57;100525.66;;;9.49;83.95
12868;BME280;33517;49.866;8.320;2023-12-28T04:07:49;100527.31;;;9.58;82.95
12868;BME280;33517;49.866;8.320;2023-12-28T04:10:43;100507.31;;;9.65;82.80
12868;BME280;33517;49.866;8.320;2023-12-28T04:13:35;100520.16;;;9.68;82.79
12868;BME280;33517;49.866;8.320;2023-12-28T04:16:27;100530.81;;;9.67;83.10
12868;BME280;33517;49.866;8.320;2023-12-28T04:19:19;100539.97;;;9.63;83.39
12868;BME280;33517;49.866;8.320;2023-12-28T04:22:11;100530.78;;;9.59;83.63
12868;BME280;33517;49.866;8.320;2023-12-28T04:25:03;100546.84;;;9.56;84.25
12868;BME280;33517;49.866;8.320;2023-12-28T04:27:56;100551.25;;;9.55;83.61
12868;BME280;33517;49.866;8.320;2023-12-28T04:30:48;100548.63;;;9.47;84.21
12868;BME280;33517;49.866;8.320;2023-12-28T04:33:40;100555.81;;;9.45;85.31
12868;BME280;33517;49.866;8.320;2023-12-28T04:36:32;100566.41;;;9.36;86.67
12868;BME280;33517;49.866;8.320;2023-12-28T04:39:24;100551.47;;;9.36;87.40
12868;BME280;33517;49.866;8.320;2023-12-28T04:42:16;100555.09;;;9.35;88.47
12868;BME280;33517;49.866;8.320;2023-12-28T04:45:10;100554.41;;;9.33;88.35
12868;BME280;33517;49.866;8.320;2023-12-28T04:48:02;100564.75;;;9.35;89.34
12868;BME280;33517;49.866;8.320;2023-12-28T04:50:54;100560.34;;;9.35;89.88
12868;BME280;33517;49.866;8.320;2023-12-28T04:53:46;100556.88;;;9.35;90.22
12868;BME280;33517;49.866;8.320;2023-12-28T04:56:38;100563.47;;;9.39;89.78
12868;BME280;33517;49.866;8.320;2023-12-28T04:59:29;100562.03;;;9.44;90.43
12868;BME280;33517;49.866;8.320;2023-12-28T05:02:23;100572.09;;;9.49;89.80
12868;BME280;33517;49.866;8.320;2023-12-28T05:05:15;100565.41;;;9.54;89.95
12868;BME280;33517;49.866;8.320;2023-12-28T05:08:07;100581.16;;;9.54;89.82
12868;BME280;33517;49.866;8.320;2023-12-28T05:10:58;100572.34;;;9.63;89.92
12868;BME280;33517;49.866;8.320;2023-12-28T05:13:50;100584.97;;;9.60;90.24
12868;BME280;33517;49.866;8.320;2023-12-28T05:16:42;100583.63;;;9.56;90.63
12868;BME280;33517;49.866;8.320;2023-12-28T05:19:35;100577.03;;;9.52;90.33
12868;BME280;33517;49.866;8.320;2023-12-28T05:22:27;100593.03;;;9.41;91.49
12868;BME280;33517;49.866;8.320;2023-12-28T05:25:19;100599.41;;;9.38;92.12
12868;BME280;33517;49.866;8.320;2023-12-28T05:28:11;100603.19;;;9.36;92.46
12868;BME280;33517;49.866;8.320;2023-12-28T05:31:05;100602.56;;;9.42;92.01
12868;BME280;33517;49.866;8.320;2023-12-28T05:33:57;100597.47;;;9.40;92.23
12868;BME280;33517;49.866;8.320;2023-12-28T05:36:51;100600.69;;;9.34;92.95
12868;BME280;33517;49.866;8.320;2023-12-28T05:39:43;100601.44;;;9.44;92.81
12868;BME280;33517;49.866;8.320;2023-12-28T05:42:34;100599.13;;;9.41;92.59
12868;BME280;33517;49.866;8.320;2023-12-28T05:45:26;100595.22;;;9.45;92.30
12868;BME280;33517;49.866;8.320;2023-12-28T05:48:19;100598.66;;;9.46;92.39
12868;BME280;33517;49.866;8.320;2023-12-28T05:51:10;100584.56;;;9.47;92.59
12868;BME280;33517;49.866;8.320;2023-12-28T05:54:04;100589.59;;;9.40;93.19
12868;BME280;33517;49.866;8.320;2023-12-28T05:56:56;100586.28;;;9.38;92.63
12868;BME280;33517;49.866;8.320;2023-12-28T05:59:49;100589.38;;;9.34;93.37
12868;BME280;33517;49.866;8.320;2023-12-28T06:02:41;100582.47;;;9.32;94.17
12868;BME280;33517;49.866;8.320;2023-12-28T06:05:33;100576.25;;;9.34;94.16
12868;BME280;33517;49.866;8.320;2023-12-28T06:08:25;100574.53;;;9.24;93.80
12868;BME280;33517;49.866;8.320;2023-12-28T06:11:18;100572.56;;;9.26;94.48
12868;BME280;33517;49.866;8.320;2023-12-28T06:14:10;100572.88;;;9.23;94.95
12868;BME280;33517;49.866;8.320;2023-12-28T06:17:03;100581.78;;;9.30;94.70
12868;BME280;33517;49.866;8.320;2023-12-28T06:19:55;100573.16;;;9.38;94.42
12868;BME280;33517;49.866;8.320;2023-12-28T06:22:46;100574.50;;;9.42;94.52
12868;BME280;33517;49.866;8.320;2023-12-28T06:25:39;100576.28;;;9.42;94.40
12868;BME280;33517;49.866;8.320;2023-12-28T06:28:32;100568.06;;;9.37;94.85
12868;BME280;33517;49.866;8.320;2023-12-28T06:31:24;100559.66;;;9.33;95.34
12868;BME280;33517;49.866;8.320;2023-12-28T06:34:16;100565.69;;;9.25;95.78
12868;BME280;33517;49.866;8.320;2023-12-28T06:37:08;100564.50;;;9.20;96.43
12868;BME280;33517;49.866;8.320;2023-12-28T06:40:00;100558.72;;;9.16;95.87
12868;BME280;33517;49.866;8.320;2023-12-28T06:42:52;100562.63;;;9.12;96.36
12868;BME280;33517;49.866;8.320;2023-12-28T06:45:45;100568.84;;;9.11;97.48
12868;BME280;33517;49.866;8.320;2023-12-28T06:48:37;100562.63;;;9.12;97.10
12868;BME280;33517;49.866;8.320;2023-12-28T06:51:30;100561.63;;;9.13;97.55
12868;BME280;33517;49.866;8.320;2023-12-28T06:54:23;100554.44;;;9.15;97.77
12868;BME280;33517;49.866;8.320;2023-12-28T06:57:15;100546.41;;;9.17;98.02
12868;BME280;33517;49.866;8.320;2023-12-28T07:00:08;100547.91;;;9.19;97.20
12868;BME280;33517;49.866;8.320;2023-12-28T07:03:02;100556.63;;;9.20;97.74
12868;BME280;33517;49.866;8.320;2023-12-28T07:05:53;100554.81;;;9.20;97.17
12868;BME280;33517;49.866;8.320;2023-12-28T07:08:45;100561.72;;;9.21;97.96
12868;BME280;33517;49.866;8.320;2023-12-28T07:11:37;100559.75;;;9.23;97.01
12868;BME280;33517;49.866;8.320;2023-12-28T07:14:29;100560.59;;;9.24;96.98
12868;BME280;33517;49.866;8.320;2023-12-28T07:17:21;100561.78;;;9.29;97.67
12868;BME280;33517;49.866;8.320;2023-12-28T07:20:14;100568.38;;;9.34;97.13
12868;BME280;33517;49.866;8.320;2023-12-28T07:23:06;100572.47;;;9.36;96.76
12868;BME280;33517;49.866;8.320;2023-12-28T07:25:59;100585.84;;;9.43;97.31
12868;BME280;33517;49.866;8.320;2023-12-28T07:28:51;100575.06;;;9.54;96.22
12868;BME280;33517;49.866;8.320;2023-12-28T07:31:43;100581.81;;;9.56;96.08
12868;BME280;33517;49.866;8.320;2023-12-28T07:34:35;100591.06;;;9.60;95.18
12868;BME280;33517;49.866;8.320;2023-12-28T07:37:28;100592.53;;;9.63;95.70
12868;BME280;33517;49.866;8.320;2023-12-28T07:40:20;100584.28;;;9.58;95.52
12868;BME280;33517;49.866;8.320;2023-12-28T07:43:12;100585.28;;;9.57;95.55
12868;BME280;33517;49.866;8.320;2023-12-28T07:46:04;100576.72;;;9.55;95.06
12868;BME280;33517;49.866;8.320;2023-12-28T07:48:55;100592.34;;;9.56;95.47
12868;BME280;33517;49.866;8.320;2023-12-28T07:51:47;100593.28;;;9.55;94.91
12868;BME280;33517;49.866;8.320;2023-12-28T07:54:41;100586.56;;;9.53;95.03
12868;BME280;33517;49.866;8.320;2023-12-28T07:57:33;100608.72;;;9.50;95.07
12868;BME280;33517;49.866;8.320;2023-12-28T08:00:25;100610.22;;;9.53;95.49
12868;BME280;33517;49.866;8.320;2023-12-28T08:03:17;100615.59;;;9.51;95.07
12868;BME280;33517;49.866;8.320;2023-12-28T08:06:10;100619.06;;;9.52;95.22
12868;BME280;33517;49.866;8.320;2023-12-28T08:09:03;100617.41;;;9.51;95.51
12868;BME280;33517;49.866;8.320;2023-12-28T08:11:56;100626.66;;;9.55;95.38
12868;BME280;33517;49.866;8.320;2023-12-28T08:14:48;100617.94;;;9.54;95.00
12868;BME280;33517;49.866;8.320;2023-12-28T08:17:40;100616.59;;;9.50;95.38
12868;BME280;33517;49.866;8.320;2023-12-28T08:20:32;100607.34;;;9.46;96.03
12868;BME280;33517;49.866;8.320;2023-12-28T08:23:24;100614.41;;;9.46;96.19
12868;BME280;33517;49.866;8.320;2023-12-28T08:26:15;100614.41;;;9.46;96.19
12868;BME280;33517;49.866;8.320;2023-12-28T08:29:09;100624.91;;;9.46;96.52
12868;BME280;33517;49.866;8.320;2023-12-28T08:32:02;100617.88;;;9.46;96.76
12868;BME280;33517;49.866;8.320;2023-12-28T08:34:53;100607.88;;;9.50;96.25
12868;BME280;33517;49.866;8.320;2023-12-28T08:37:45;100612.00;;;9.52;96.45
12868;BME280;33517;49.866;8.320;2023-12-28T08:40:37;100603.44;;;9.50;96.02
12868;BME280;33517;49.866;8.320;2023-12-28T08:43:29;100606.59;;;9.54;95.81
12868;BME280;33517;49.866;8.320;2023-12-28T08:46:22;100600.38;;;9.55;95.25
12868;BME280;33517;49.866;8.320;2023-12-28T08:49:15;100595.78;;;9.57;95.20
12868;BME280;33517;49.866;8.320;2023-12-28T08:52:07;100603.34;;;9.60;94.89
12868;BME280;33517;49.866;8.320;2023-12-28T08:55:00;100603.03;;;9.63;94.89
12868;BME280;33517;49.866;8.320;2023-12-28T08:57:53;100600.41;;;9.63;94.66
12868;BME280;33517;49.866;8.320;2023-12-28T09:00:45;100616.16;;;9.63;94.38
12868;BME280;33517;49.866;8.320;2023-12-28T09:03:38;100617.00;;;9.63;94.45
12868;BME280;33517;49.866;8.320;2023-12-28T09:06:30;100614.88;;;9.67;94.59
12868;BME280;33517;49.866;8.320;2023-12-28T09:09:22;100617.91;;;9.72;94.18
12868;BME280;33517;49.866;8.320;2023-12-28T09:12:14;100615.28;;;9.72;93.61
12868;BME280;33517;49.866;8.320;2023-12-28T09:15:07;100618.47;;;9.83;93.96
12868;BME280;33517;49.866;8.320;2023-12-28T09:17:59;100621.38;;;10.06;92.96
12868;BME280;33517;49.866;8.320;2023-12-28T09:20:52;100619.50;;;10.24;91.85
12868;BME280;33517;49.866;8.320;2023-12-28T09:23:44;100625.41;;;10.60;90.25
12868;BME280;33517;49.866;8.320;2023-12-28T09:26:36;100631.09;;;10.97;88.26
12868;BME280;33517;49.866;8.320;2023-12-28T09:29:28;100635.59;;;11.37;86.62
12868;BME280;33517;49.866;8.320;2023-12-28T09:32:20;100639.38;;;11.42;83.95
12868;BME280;33517;49.866;8.320;2023-12-28T09:35:11;100638.56;;;12.29;80.75
12868;BME280;33517;49.866;8.320;2023-12-28T09:38:05;100650.75;;;13.07;77.15
12868;BME280;33517;49.866;8.320;2023-12-28T09:40:58;100663.34;;;13.28;75.55
12868;BME280;33517;49.866;8.320;2023-12-28T09:43:54;100662.72;;;14.00;72.49
12868;BME280;33517;49.866;8.320;2023-12-28T09:46:46;100655.63;;;13.41;73.13
12868;BME280;33517;49.866;8.320;2023-12-28T09:49:38;100650.38;;;12.49;76.28
12868;BME280;33517;49.866;8.320;2023-12-28T09:52:31;100657.28;;;13.19;75.92
12868;BME280;33517;49.866;8.320;2023-12-28T09:55:24;100652.22;;;15.01;69.33
12868;BME280;33517;49.866;8.320;2023-12-28T09:58:18;100648.31;;;15.18;66.95
12868;BME280;33517;49.866;8.320;2023-12-28T10:01:10;100651.50;;;15.49;63.61
12868;BME280;33517;49.866;8.320;2023-12-28T10:04:05;100667.66;;;15.12;64.80
12868;BME280;33517;49.866;8.320;2023-12-28T10:06:59;100651.66;;;14.26;67.44
12868;BME280;33517;49.866;8.320;2023-12-28T10:09:51;100653.81;;;14.30;68.26
12868;BME280;33517;49.866;8.320;2023-12-28T10:12:45;100651.84;;;13.95;68.41
12868;BME280;33517;49.866;8.320;2023-12-28T10:15:38;100653.75;;;13.49;71.15
12868;BME280;33517;49.866;8.320;2023-12-28T10:18:30;100665.09;;;13.13;71.90
12868;BME280;33517;49.866;8.320;2023-12-28T10:21:23;100661.56;;;12.89;73.13
12868;BME280;33517;49.866;8.320;2023-12-28T10:24:15;100659.13;;;12.49;73.29
12868;BME280;33517;49.866;8.320;2023-12-28T10:27:07;100660.91;;;12.02;76.26
12868;BME280;33517;49.866;8.320;2023-12-28T10:30:00;100664.03;;;12.91;75.06
12868;BME280;33517;49.866;8.320;2023-12-28T10:32:52;100663.75;;;14.28;70.82
12868;BME280;33517;49.866;8.320;2023-12-28T10:35:44;100652.81;;;14.96;66.42
12868;BME280;33517;49.866;8.320;2023-12-28T10:38:37;100649.03;;;13.97;67.30
12868;BME280;33517;49.866;8.320;2023-12-28T10:41:30;100639.97;;;13.39;70.52
12868;BME280;33517;49.866;8.320;2023-12-28T10:44:27;100634.97;;;14.69;69.10
12868;BME280;33517;49.866;8.320;2023-12-28T10:47:25;100631.88;;;15.99;64.83
12868;BME280;33517;49.866;8.320;2023-12-28T10:50:20;100636.31;;;15.22;64.27
12868;BME280;33517;49.866;8.320;2023-12-28T10:53:21;100635.63;;;13.61;67.89
12868;BME280;33517;49.866;8.320;2023-12-28T10:56:20;100624.16;;;12.47;71.46
12868;BME280;33517;49.866;8.320;2023-12-28T10:59:25;100620.03;;;11.98;74.26
12868;BME280;33517;49.866;8.320;2023-12-28T11:02:21;100613.94;;;13.28;73.63
12868;BME280;33517;49.866;8.320;2023-12-28T11:05:17;100611.09;;;14.33;67.33
12868;BME280;33517;49.866;8.320;2023-12-28T11:08:11;100618.41;;;15.24;64.47
12868;BME280;33517;49.866;8.320;2023-12-28T11:11:04;100622.19;;;15.85;61.97
12868;BME280;33517;49.866;8.320;2023-12-28T11:13:59;100622.28;;;15.98;60.61
12868;BME280;33517;49.866;8.320;2023-12-28T11:16:53;100619.22;;;15.66;60.43
12868;BME280;33517;49.866;8.320;2023-12-28T11:19:45;100621.97;;;15.52;61.72
12868;BME280;33517;49.866;8.320;2023-12-28T11:22:40;100624.19;;;15.76;61.55
12868;BME280;33517;49.866;8.320;2023-12-28T11:25:32;100628.63;;;14.70;62.89
12868;BME280;33517;49.866;8.320;2023-12-28T11:28:24;100632.16;;;14.27;64.98
12868;BME280;33517;49.866;8.320;2023-12-28T11:31:17;100628.84;;;13.96;66.03
12868;BME280;33517;49.866;8.320;2023-12-28T11:34:13;100620.84;;;13.52;68.33
12868;BME280;33517;49.866;8.320;2023-12-28T11:37:12;100628.53;;;12.93;69.96
12868;BME280;33517;49.866;8.320;2023-12-28T11:40:16;100632.22;;;12.84;71.01
12868;BME280;33517;49.866;8.320;2023-12-28T11:43:18;100618.28;;;12.68;71.63
12868;BME280;33517;49.866;8.320;2023-12-28T11:46:10;100621.81;;;12.52;72.45
12868;BME280;33517;49.866;8.320;2023-12-28T11:49:05;100623.56;;;12.68;72.76
12868;BME280;33517;49.866;8.320;2023-12-28T11:51:58;100610.81;;;13.02;72.42
12868;BME280;33517;49.866;8.320;2023-12-28T11:54:50;100615.22;;;13.32;71.68
12868;BME280;33517;49.866;8.320;2023-12-28T11:57:43;100603.13;;;13.15;70.18
12868;BME280;33517;49.866;8.320;2023-12-28T12:00:35;100602.75;;;13.26;70.86
12868;BME280;33517;49.866;8.320;2023-12-28T12:03:27;100597.56;;;13.47;71.22
12868;BME280;33517;49.866;8.320;2023-12-28T12:06:20;100592.22;;;13.18;70.71
12868;BME280;33517;49.866;8.320;2023-12-28T12:09:11;100589.38;;;12.74;72.75
12868;BME280;33517;49.866;8.320;2023-12-28T12:12:04;100578.97;;;12.42;74.07
12868;BME280;33517;49.866;8.320;2023-12-28T12:14:58;100576.97;;;12.14;75.00
12868;BME280;33517;49.866;8.320;2023-12-28T12:17:50;100574.81;;;12.17;76.03
12868;BME280;33517;49.866;8.320;2023-12-28T12:20:43;100580.03;;;12.64;77.09
12868;BME280;33517;49.866;8.320;2023-12-28T12:23:35;100565.31;;;13.52;74.03
12868;BME280;33517;49.866;8.320;2023-12-28T12:26:28;100565.66;;;14.51;70.67
12868;BME280;33517;49.866;8.320;2023-12-28T12:29:21;100562.78;;;14.17;69.50
12868;BME280;33517;49.866;8.320;2023-12-28T12:32:15;100567.31;;;13.35;71.73
12868;BME280;33517;49.866;8.320;2023-12-28T12:35:07;100552.09;;;12.92;73.35
12868;BME280;33517;49.866;8.320;2023-12-28T12:37:59;100551.25;;;12.46;74.98
12868;BME280;33517;49.866;8.320;2023-12-28T12:40:51;100548.19;;;11.96;77.26
12868;BME280;33517;49.866;8.320;2023-12-28T12:43:43;100542.69;;;11.67;79.81
12868;BME280;33517;49.866;8.320;2023-12-28T12:46:35;100528.53;;;11.44;80.87
12868;BME280;33517;49.866;8.320;2023-12-28T12:49:29;100530.53;;;11.34;82.76
12868;BME280;33517;49.866;8.320;2023-12-28T12:52:20;100525.06;;;11.35;83.39
12868;BME280;33517;49.866;8.320;2023-12-28T12:55:14;100518.28;;;11.57;82.92
12868;BME280;33517;49.866;8.320;2023-12-28T12:58:06;100522.06;;;11.78;82.81
12868;BME280;33517;49.866;8.320;2023-12-28T13:00:58;100521.41;;;11.76;81.95
12868;BME280;33517;49.866;8.320;2023-12-28T13:03:50;100522.06;;;11.62;82.90
12868;BME280;33517;49.866;8.320;2023-12-28T13:06:44;100519.13;;;11.57;82.83
12868;BME280;33517;49.866;8.320;2023-12-28T13:09:36;100511.88;;;11.59;84.49
12868;BME280;33517;49.866;8.320;2023-12-28T13:12:27;100506.44;;;12.08;82.49
12868;BME280;33517;49.866;8.320;2023-12-28T13:15:19;100511.81;;;11.83;82.99
12868;BME280;33517;49.866;8.320;2023-12-28T13:18:11;100512.16;;;11.64;84.26
12868;BME280;33517;49.866;8.320;2023-12-28T13:21:03;100509.88;;;11.61;84.71
12868;BME280;33517;49.866;8.320;2023-12-28T13:23:57;100511.59;;;11.38;86.27
12868;BME280;33517;49.866;8.320;2023-12-28T13:26:52;100507.94;;;11.31;86.28
12868;BME280;33517;49.866;8.320;2023-12-28T13:29:43;100503.22;;;11.27;87.79
12868;BME280;33517;49.866;8.320;2023-12-28T13:32:35;100500.56;;;11.27;87.75
12868;BME280;33517;49.866;8.320;2023-12-28T13:35:27;100493.81;;;11.32;87.59
12868;BME280;33517;49.866;8.320;2023-12-28T13:38:19;100490.88;;;11.03;89.01
12868;BME280;33517;49.866;8.320;2023-12-28T13:41:13;100500.44;;;10.88;89.93
12868;BME280;33517;49.866;8.320;2023-12-28T13:44:05;100493.53;;;10.79;90.66
12868;BME280;33517;49.866;8.320;2023-12-28T13:47:01;100488.44;;;10.77;90.85
12868;BME280;33517;49.866;8.320;2023-12-28T13:49:53;100482.50;;;10.59;92.90
12868;BME280;33517;49.866;8.320;2023-12-28T13:52:46;100484.97;;;10.45;94.30
12868;BME280;33517;49.866;8.320;2023-12-28T13:55:38;100484.09;;;10.36;94.92
12868;BME280;33517;49.866;8.320;2023-12-28T13:58:31;100481.66;;;10.35;95.87
12868;BME280;33517;49.866;8.320;2023-12-28T14:01:23;100474.59;;;10.35;95.90
12868;BME280;33517;49.866;8.320;2023-12-28T14:04:15;100482.47;;;10.35;95.50
12868;BME280;33517;49.866;8.320;2023-12-28T14:07:07;100496.94;;;10.39;94.43
12868;BME280;33517;49.866;8.320;2023-12-28T14:09:59;100479.84;;;10.51;95.38
12868;BME280;33517;49.866;8.320;2023-12-28T14:12:50;100483.19;;;10.77;94.36
12868;BME280;33517;49.866;8.320;2023-12-28T14:15:44;100462.25;;;10.76;93.57
12868;BME280;33517;49.866;8.320;2023-12-28T14:18:36;100451.41;;;10.63;93.87
12868;BME280;33517;49.866;8.320;2023-12-28T14:21:34;100452.41;;;10.54;93.97
12868;BME280;33517;49.866;8.320;2023-12-28T14:24:27;100444.31;;;10.47;94.40
12868;BME280;33517;49.866;8.320;2023-12-28T14:27:19;100437.91;;;10.42;94.69
12868;BME280;33517;49.866;8.320;2023-12-28T14:30:13;100445.97;;;10.40;94.90
12868;BME280;33517;49.866;8.320;2023-12-28T14:33:08;100458.47;;;10.38;94.61
12868;BME280;33517;49.866;8.320;2023-12-28T14:36:02;100450.75;;;10.37;94.61
12868;BME280;33517;49.866;8.320;2023-12-28T14:38:55;100461.44;;;10.35;94.80
12868;BME280;33517;49.866;8.320;2023-12-28T14:41:48;100461.75;;;10.32;94.58
12868;BME280;33517;49.866;8.320;2023-12-28T14:44:39;100467.63;;;10.26;94.92
12868;BME280;33517;49.866;8.320;2023-12-28T14:47:31;100472.41;;;10.23;94.89
12868;BME280;33517;49.866;8.320;2023-12-28T14:50:25;100468.63;;;10.17;95.45
12868;BME280;33517;49.866;8.320;2023-12-28T14:53:16;100476.16;;;10.12;95.63
12868;BME280;33517;49.866;8.320;2023-12-28T14:56:08;100491.13;;;10.11;95.83
12868;BME280;33517;49.866;8.320;2023-12-28T14:59:01;100478.13;;;10.10;94.87
12868;BME280;33517;49.866;8.320;2023-12-28T15:01:53;100484.16;;;10.02;95.14
12868;BME280;33517;49.866;8.320;2023-12-28T15:04:45;100482.84;;;9.98;95.23
12868;BME280;33517;49.866;8.320;2023-12-28T15:07:38;100485.25;;;9.92;95.27